Graham, FL (32042)

8:22 PM EST on February 06, 2016 (GMT -0500)
Starke Rural Area | | Change Station
CLOSE
Current Station
Personal Weather Station
Location: Starke, FL
Elevation: 147 ft
Nearby Weather Stations

Elev 147 ft 30.00 °N, 82.21 °W | Updated 2 minutes ago

Partly Cloudy
Partly Cloudy
48.7 °F
Feels Like 47 °F
N
4.7
Wind Variable Wind from West

Today
High -- | Low -- °F
--% Chance of Precip.
Yesterday
High -- | Low -- °F
Precip. -- in
Pressure 30.11 in
Visibility 1.2 miles
Clouds Mostly Cloudy 100 ft
Overcast 600 ft
Windchill 47 °F
Dew Point 45 °F
Humidity 88%
Rainfall 0.28 in
Snow Depth Not available.
7:15 AM 6:09 PM
Waning Crescent, 3% visible
METAR K42J 070115Z AUTO 35010KT 1 1/4SM BKN001 OVC006 08/08 A3011 RMK AO1 P0002 TSNO
Pressure 30.11 in
Visibility 1.2 miles
Clouds Mostly Cloudy 100 ft
Overcast 600 ft
Windchill 47 °F
Dew Point 45 °F
Humidity 88%
Rainfall 0.28 in
Snow Depth Not available.
7:15 AM 6:09 PM
Waning Crescent, 3% visible
METAR K42J 070115Z AUTO 35010KT 1 1/4SM BKN001 OVC006 08/08 A3011 RMK AO1 P0002 TSNO

10-Day Weather Forecast

Almanac

Astronomy

Feb. 06, 2016 Rise Set
Actual Time
Civil Twilight
Nautical Twilight
Astronomical Twilight
Moon
Length of Visible Light
Length of Day
Tomorrow will be .
, % of the Moon is Illuminated

Today's Extremes

State Highs State Lows

Community

WunderPhotos

Upload Photos

1,891,118 photos uploaded!

WunderBlog® & News

Nearby

Air Quality

  Air Quality AQ Index Pollutant
Not available.

Snow Depth

Station Depth Elevation

Earthquake Activity

City Distance Mag. Time & Date
Minimum magnitude displayed is 2.5.

Coastal Water Temperatures

Place Temperature

Stations

Nearby Weather Stations

Station Location Temp. Windchill Dew Point Humidity Wind Precip. Elev Updated Type
                   

Watches & Warnings

There are currently no watches in effect.